Time;durP1;ratioP1;P1;durP2;ratioP2;P2;SDS_P1;SDS_P2;PMS_P1;PMS_P2;Temp;Humidity;BMP_temperature;BMP_pressure;BME280_temperature;BME280_humidity;BME280_pressure;Samples;Min_cycle;Max_cycle;Signal;HPM_P1;HPM_P2
2023/07/11 00:01:16;;;;;;;0.28;0.28;;;28.40;67.10;;;29.14;51.33;95312.28;5096782;28;20196;-44
2023/07/11 00:03:43;;;;;;;0.30;0.30;;;28.30;67.30;;;29.12;51.09;95317.19;5097360;28;20220;-44
2023/07/11 00:06:17;;;;;;;0.22;0.22;;;28.40;67.20;;;29.11;51.51;95312.88;5096795;28;20253;-44
2023/07/11 00:08:44;;;;;;;0.30;0.30;;;28.40;67.50;;;29.09;50.96;95307.00;5096435;28;20210;-44
2023/07/11 00:11:16;;;;;;;0.30;0.30;;;28.30;67.30;;;29.08;51.12;95310.78;5096522;28;20216;-44
2023/07/11 00:13:43;;;;;;;0.30;0.30;;;28.30;67.40;;;29.07;51.48;95314.59;5096638;28;20176;-44
2023/07/11 00:16:13;;;;;;;0.30;0.30;;;28.30;67.40;;;29.06;51.16;95313.78;5096609;28;20264;-44
2023/07/11 00:18:41;;;;;;;0.20;0.20;;;28.30;67.40;;;29.04;51.57;95313.28;5097100;28;20187;-45
2023/07/11 00:21:08;;;;;;;0.30;0.30;;;28.30;67.50;;;29.04;51.04;95313.28;5095470;28;20193;-49
2023/07/11 00:23:35;;;;;;;0.30;0.30;;;28.30;67.50;;;29.02;51.31;95312.78;5095555;28;20293;-45
2023/07/11 00:26:03;;;;;;;0.30;0.30;;;28.30;67.60;;;29.02;51.23;95309.28;5096294;28;20274;-45
2023/07/11 00:28:31;;;;;;;0.30;0.30;;;28.20;67.60;;;29.00;51.50;95306.06;5096654;28;20205;-44
2023/07/11 00:30:59;;;;;;;0.20;0.20;;;28.20;67.60;;;28.99;51.88;95305.28;5112118;28;20241;-44
2023/07/11 00:33:26;;;;;;;0.28;0.28;;;28.20;67.50;;;28.97;51.77;95302.09;5095338;28;20249;-45
2023/07/11 00:35:54;;;;;;;0.28;0.28;;;28.20;67.50;;;28.98;51.70;95298.28;5095206;28;20207;-47
2023/07/11 00:38:21;;;;;;;0.30;0.30;;;28.20;67.60;;;28.96;51.86;95299.69;5095394;28;20383;-45
2023/07/11 00:40:50;;;;;;;0.30;0.30;;;28.20;67.60;;;28.96;51.32;95299.69;5096218;28;20234;-45
2023/07/11 00:43:21;;;;;;;0.30;0.30;;;28.20;67.60;;;28.94;51.51;95294.56;5095091;28;20270;-46
2023/07/11 00:46:03;;;;;;;0.30;0.30;;;28.20;67.70;;;28.92;51.58;95294.09;5096324;28;20252;-45
2023/07/11 00:48:41;;;;;;;0.20;0.20;;;28.20;67.70;;;28.89;51.83;95295.50;5096534;28;20415;-49
2023/07/11 00:51:14;;;;;;;0.30;0.30;;;28.20;67.80;;;28.89;51.90;95297.38;5095976;28;20247;-48
2023/07/11 00:53:43;;;;;;;0.30;0.30;;;28.10;68.60;;;28.89;51.69;95291.97;5095308;28;20240;-45
2023/07/11 00:56:16;;;;;;;0.30;0.30;;;28.20;67.80;;;28.87;52.07;95297.69;5096214;28;20229;-47
2023/07/11 00:58:45;;;;;;;0.20;0.20;;;28.10;67.80;;;28.86;52.26;95289.88;5095486;28;20183;-45
2023/07/11 01:01:15;;;;;;;0.28;0.28;;;28.10;67.70;;;28.85;51.61;95288.28;5095801;28;20286;-47
2023/07/11 01:03:43;;;;;;;0.25;0.25;;;28.10;67.80;;;28.85;52.22;95289.06;5094833;28;20246;-47
2023/07/11 01:06:19;;;;;;;0.30;0.30;;;28.10;67.80;;;28.83;51.62;95283.19;5096241;28;20209;-44
2023/07/11 01:08:49;;;;;;;0.30;0.30;;;28.10;68.00;;;28.82;52.23;95281.59;5095663;28;20192;-48
2023/07/11 01:11:19;;;;;;;0.30;0.30;;;28.10;68.00;;;28.82;51.93;95286.16;5094597;28;20235;-45
2023/07/11 01:13:46;;;;;;;0.30;0.30;;;28.10;68.10;;;28.80;51.68;95286.47;5095501;28;20213;-44
2023/07/11 01:16:13;;;;;;;0.30;0.30;;;28.10;68.00;;;28.79;51.88;95287.56;5095503;28;20199;-47
2023/07/11 01:18:40;;;;;;;0.30;0.30;;;28.00;67.90;;;28.78;51.82;95291.34;5094478;28;20205;-44
2023/07/11 01:21:08;;;;;;;0.30;0.30;;;28.00;67.80;;;28.78;52.40;95283.25;5094743;28;20557;-49
2023/07/11 01:23:36;;;;;;;0.30;0.30;;;28.00;68.00;;;28.76;51.85;95280.09;5095641;28;20279;-49
2023/07/11 01:26:07;;;;;;;0.30;0.30;;;28.00;68.00;;;28.74;52.31;95288.47;5094805;28;20241;-49
2023/07/11 01:28:34;;;;;;;0.20;0.20;;;28.00;68.00;;;28.73;51.86;95286.06;5061213;28;20252;-47
2023/07/11 01:31:03;;;;;;;0.30;0.30;;;28.00;68.00;;;28.72;51.76;95282.56;5095052;28;20210;-47
2023/07/11 01:33:32;;;;;;;0.30;0.30;;;28.00;68.00;;;28.72;52.25;95284.47;5094983;28;20191;-47
2023/07/11 01:36:02;;;;;;;0.30;0.30;;;28.00;67.90;;;28.67;52.50;95279.13;5095241;28;20195;-50
2023/07/11 01:38:30;;;;;;;0.40;0.40;;;28.00;68.10;;;28.68;51.93;95283.44;5095886;28;20195;-49
2023/07/11 01:40:57;;;;;;;0.22;0.22;;;28.00;68.10;;;28.68;51.88;95278.84;5095137;28;20227;-44
2023/07/11 01:43:26;;;;;;;0.32;0.32;;;28.00;68.10;;;28.67;52.07;95279.13;5095428;28;20243;-44
2023/07/11 01:45:53;;;;;;;0.30;0.30;;;28.00;68.10;;;28.66;52.35;95269.44;5094123;28;20669;-45
2023/07/11 01:48:20;;;;;;;0.30;0.30;;;27.90;68.10;;;28.65;52.42;95271.34;5095380;28;20271;-44
2023/07/11 01:50:48;;;;;;;0.20;0.20;;;27.90;68.10;;;28.65;52.44;95270.53;5093849;28;20285;-44
2023/07/11 01:53:15;;;;;;;0.20;0.20;;;27.90;68.20;;;28.64;52.52;95263.53;5111083;28;20246;-44
2023/07/11 01:55:43;;;;;;;0.30;0.30;;;27.90;68.20;;;28.63;52.10;95270.84;5094050;28;20200;-45
2023/07/11 01:58:10;;;;;;;0.30;0.30;;;27.90;68.20;;;28.61;52.35;95267.63;5111035;28;20283;-45
2023/07/11 02:00:38;;;;;;;0.30;0.30;;;27.90;68.20;;;28.60;52.55;95264.13;5093834;28;20261;-44
2023/07/11 02:03:06;;;;;;;0.30;0.30;;;27.90;68.30;;;28.58;52.76;95263.63;5110963;28;20200;-45
2023/07/11 02:05:33;;;;;;;0.30;0.30;;;27.90;68.30;;;28.56;52.61;95256.94;5095043;28;20206;-45
2023/07/11 02:08:00;;;;;;;0.30;0.30;;;27.80;68.20;;;28.56;52.65;95259.63;5094351;28;20190;-44
2023/07/11 02:10:27;;;;;;;0.30;0.30;;;27.80;68.20;;;28.54;52.40;95262.63;5093676;28;20735;-44
2023/07/11 02:12:54;;;;;;;0.30;0.30;;;27.80;68.20;;;28.54;52.59;95259.13;5094834;28;20207;-44
2023/07/11 02:15:21;;;;;;;0.30;0.30;;;27.80;68.30;;;28.53;52.42;95257.53;5097890;28;20260;-47
2023/07/11 02:17:48;;;;;;;0.30;0.30;;;27.80;68.20;;;28.52;52.13;95264.03;5099431;28;20191;-44
2023/07/11 02:20:16;;;;;;;0.30;0.30;;;27.80;68.30;;;28.51;52.64;95259.72;5099057;28;20204;-45
2023/07/11 02:22:43;;;;;;;0.30;0.30;;;27.80;68.30;;;28.49;52.72;95262.72;5098622;28;20240;-44
2023/07/11 02:25:10;;;;;;;0.30;0.30;;;27.70;68.30;;;28.49;52.41;95267.31;5097829;28;20205;-44
2023/07/11 02:27:37;;;;;;;0.20;0.20;;;27.80;68.40;;;28.48;52.31;95258.44;5098595;28;20282;-45
2023/07/11 02:30:05;;;;;;;0.20;0.20;;;27.80;68.40;;;28.47;52.63;95264.13;5099348;28;20232;-44
2023/07/11 02:32:32;;;;;;;0.20;0.20;;;27.70;68.40;;;28.45;52.47;95261.72;5098447;28;20253;-45
2023/07/11 02:35:00;;;;;;;0.30;0.30;;;27.70;68.50;;;28.43;52.35;95267.41;5098536;28;20191;-45
2023/07/11 02:37:27;;;;;;;0.25;0.25;;;27.70;68.50;;;28.44;52.65;95263.63;5098450;28;20534;-44
2023/07/11 02:39:54;;;;;;;0.38;0.38;;;27.70;68.50;;;28.44;52.84;95268.19;5098971;28;20193;-49
2023/07/11 02:42:21;;;;;;;0.30;0.30;;;27.70;68.60;;;28.42;52.80;95268.50;5097381;28;20197;-47
2023/07/11 02:44:48;;;;;;;0.30;0.30;;;27.70;68.80;;;28.40;52.89;95265.28;5098353;28;20633;-45
2023/07/11 02:47:15;;;;;;;0.30;0.30;;;27.70;68.70;;;28.39;52.44;95266.41;5097709;28;20218;-47
2023/07/11 02:49:42;;;;;;;0.30;0.30;;;27.70;68.70;;;28.38;52.73;95258.59;5098267;28;20546;-45
2023/07/11 02:52:10;;;;;;;0.30;0.30;;;27.70;68.90;;;28.38;52.64;95264.00;5098074;28;20299;-45
2023/07/11 02:54:38;;;;;;;0.30;0.30;;;27.60;68.80;;;28.36;53.14;95256.19;5098190;28;20192;-45
2023/07/11 02:57:09;;;;;;;0.30;0.30;;;27.70;68.80;;;28.35;52.46;95260.00;5098145;28;20192;-45
2023/07/11 02:59:36;;;;;;;0.30;0.30;;;27.70;69.00;;;28.34;53.16;95254.91;5098157;28;20260;-48
2023/07/11 03:02:03;;;;;;;0.32;0.32;;;27.70;68.90;;;28.35;53.23;95261.91;5097916;28;20222;-49
2023/07/11 03:04:31;;;;;;;0.30;0.30;;;27.60;68.90;;;28.32;52.88;95257.91;5098009;28;20624;-45
2023/07/11 03:06:59;;;;;;;0.30;0.30;;;27.60;68.90;;;28.31;53.17;95258.19;5098209;28;20205;-45
2023/07/11 03:09:27;;;;;;;0.30;0.30;;;27.60;68.90;;;28.30;52.88;95254.69;5098188;28;20194;-47
2023/07/11 03:11:54;;;;;;;0.30;0.30;;;27.60;68.90;;;28.28;52.82;95263.09;5097904;28;20233;-44
2023/07/11 03:14:23;;;;;;;0.30;0.30;;;27.60;69.00;;;28.25;52.70;95255.56;5098071;28;20191;-45
2023/07/11 03:16:51;;;;;;;0.20;0.20;;;27.60;69.00;;;28.25;52.84;95257.47;5098015;28;20203;-50
2023/07/11 03:19:22;;;;;;;0.30;0.30;;;27.60;68.90;;;28.25;53.25;95260.19;5097956;28;20633;-47
2023/07/11 03:21:50;;;;;;;0.30;0.30;;;27.60;68.90;;;28.24;53.46;95258.56;5097467;28;20190;-48
2023/07/11 03:24:17;;;;;;;0.20;0.20;;;27.60;68.90;;;28.23;52.87;95260.47;5096738;28;20198;-45
2023/07/11 03:26:47;;;;;;;0.30;0.30;;;27.60;68.90;;;28.23;52.85;95259.66;5096359;28;20683;-46
2023/07/11 03:29:14;;;;;;;0.30;0.30;;;27.60;68.90;;;28.21;53.38;95259.97;5097805;28;20225;-49
2023/07/11 03:31:43;;;;;;;0.28;0.28;;;27.50;68.90;;;28.21;52.94;95259.16;5097238;28;20236;-47
2023/07/11 03:34:10;;;;;;;0.30;0.30;;;27.50;68.90;;;28.19;53.95;95262.16;5096574;28;20256;-50
2023/07/11 03:36:37;;;;;;;0.30;0.30;;;27.50;68.90;;;28.17;53.02;95263.56;5097645;28;20191;-46
2023/07/11 03:39:04;;;;;;;0.30;0.30;;;27.50;68.90;;;28.17;52.99;95269.72;5097898;28;20198;-45
2023/07/11 03:41:31;;;;;;;0.32;0.32;;;27.50;68.90;;;28.16;52.95;95262.75;5096243;28;20697;-44
2023/07/11 03:43:59;;;;;;;0.30;0.30;;;27.50;68.90;;;28.17;53.03;95266.25;5097231;28;20200;-44
2023/07/11 03:46:26;;;;;;;0.32;0.32;;;27.50;68.90;;;28.14;53.12;95267.66;5097186;28;20195;-44
2023/07/11 03:48:54;;;;;;;0.30;0.30;;;27.50;68.90;;;28.14;53.52;95264.13;5097375;28;20215;-44
2023/07/11 03:51:21;;;;;;;0.30;0.30;;;27.50;68.90;;;28.11;52.99;95260.94;5079240;28;20299;-44
2023/07/11 03:53:48;;;;;;;0.30;0.30;;;27.50;68.90;;;28.07;53.19;95259.91;5113113;28;20197;-44
2023/07/11 03:56:15;;;;;;;0.30;0.30;;;27.50;68.90;;;28.10;53.62;95266.66;5096979;28;20646;-44
2023/07/11 03:58:42;;;;;;;0.30;0.30;;;27.40;68.80;;;28.09;53.60;95268.53;5096963;28;20183;-44
2023/07/11 04:01:09;;;;;;;0.30;0.30;;;27.50;68.90;;;28.08;53.20;95269.63;5096799;28;20194;-44
2023/07/11 04:03:37;;;;;;;0.30;0.30;;;27.50;68.90;;;28.08;53.21;95264.22;5095967;28;20195;-44
2023/07/11 04:06:04;;;;;;;0.30;0.30;;;27.50;68.90;;;28.07;53.83;95270.72;5096812;28;20194;-45
2023/07/11 04:08:31;;;;;;;0.30;0.30;;;27.40;68.80;;;28.07;53.29;95270.72;5095866;28;20195;-44
2023/07/11 04:11:02;;;;;;;0.30;0.30;;;27.40;68.80;;;28.07;53.78;95275.31;5096643;28;20295;-44
2023/07/11 04:13:29;;;;;;;0.30;0.30;;;27.40;68.80;;;28.05;53.87;95272.09;5096610;28;20242;-45
2023/07/11 04:15:56;;;;;;;0.30;0.30;;;27.40;68.80;;;28.05;53.75;95267.53;5096018;28;20274;-45
2023/07/11 04:18:23;;;;;;;0.30;0.30;;;27.40;68.80;;;28.04;53.21;95265.88;5096803;28;20536;-44
2023/07/11 04:20:51;;;;;;;0.20;0.20;;;27.40;68.80;;;28.04;53.84;95265.88;5096506;28;20579;-44
2023/07/11 04:23:18;;;;;;;0.20;0.20;;;27.40;68.80;;;28.03;53.46;95258.88;5096335;28;20278;-44
2023/07/11 04:25:45;;;;;;;0.30;0.30;;;27.40;68.80;;;28.02;53.60;95262.69;5095936;28;20189;-48
2023/07/11 04:28:12;;;;;;;0.30;0.30;;;27.40;68.90;;;28.03;53.45;95258.09;5096102;28;20269;-44
2023/07/11 04:30:39;;;;;;;0.30;0.30;;;27.40;68.80;;;28.01;53.46;95261.06;5095317;28;20534;-44
2023/07/11 04:33:07;;;;;;;0.30;0.30;;;27.40;68.90;;;28.00;53.66;95256.78;5096133;28;20708;-47
2023/07/11 04:35:34;;;;;;;0.30;0.30;;;27.40;68.80;;;28.01;53.67;95258.38;5096234;28;20198;-44
2023/07/11 04:38:01;;;;;;;0.30;0.30;;;27.40;68.80;;;28.01;53.97;95262.97;5096214;28;20306;-44
2023/07/11 04:40:28;;;;;;;0.30;0.30;;;27.40;68.90;;;28.00;53.46;95255.97;5096375;28;20280;-44
2023/07/11 04:42:58;;;;;;;0.30;0.30;;;27.40;68.80;;;28.00;53.47;95262.16;5095152;28;20194;-44
2023/07/11 04:45:26;;;;;;;0.30;0.30;;;27.40;68.80;;;28.00;53.86;95256.78;5096104;28;20183;-47
2023/07/11 04:47:54;;;;;;;0.22;0.22;;;27.40;68.80;;;27.99;53.98;95255.19;5096041;28;20199;-48
2023/07/11 04:50:21;;;;;;;0.30;0.30;;;27.40;69.80;;;27.99;54.07;95257.06;5095909;28;20629;-45
2023/07/11 04:52:50;;;;;;;0.22;0.22;;;27.40;69.00;;;28.00;54.00;95253.28;5095761;28;20691;-44
2023/07/11 04:55:17;;;;;;;0.30;0.30;;;27.30;69.10;;;27.98;53.86;95256.28;5095876;28;20191;-46
2023/07/11 04:57:44;;;;;;;0.30;0.30;;;27.40;69.00;;;27.99;53.89;95260.59;5096400;28;20291;-49
2023/07/11 05:00:12;;;;;;;0.30;0.30;;;27.40;69.20;;;27.98;54.51;95258.97;5078450;28;20210;-44
2023/07/11 05:02:39;;;;;;;0.20;0.20;;;27.40;69.30;;;27.98;54.24;95253.59;5095618;28;20273;-44
2023/07/11 05:05:07;;;;;;;0.30;0.30;;;27.40;69.20;;;27.97;54.43;95262.75;5094759;28;20232;-44
2023/07/11 05:07:34;;;;;;;0.20;0.20;;;27.40;69.30;;;27.96;54.00;95259.28;5095774;28;20259;-44
2023/07/11 05:10:01;;;;;;;0.30;0.30;;;27.40;69.30;;;27.97;54.33;95257.38;5095593;28;20231;-48
2023/07/11 05:12:28;;;;;;;0.30;0.30;;;27.40;69.30;;;27.98;54.38;95263.56;5095552;28;20251;-47
2023/07/11 05:14:55;;;;;;;0.30;0.30;;;27.40;69.30;;;27.98;54.45;95261.69;5094953;28;20189;-45
2023/07/11 05:17:23;;;;;;;0.20;0.20;;;27.40;69.30;;;27.98;54.46;95258.97;5095500;28;20250;-49
2023/07/11 05:19:50;;;;;;;0.30;0.30;;;27.30;69.30;;;27.96;54.32;95259.28;5095739;28;20193;-45
2023/07/11 05:22:17;;;;;;;0.20;0.20;;;27.40;69.30;;;27.99;54.38;95259.75;5095673;28;20577;-48
2023/07/11 05:24:44;;;;;;;0.20;0.20;;;27.40;69.40;;;27.97;54.69;95260.06;5095891;28;20622;-44
2023/07/11 05:27:11;;;;;;;0.30;0.30;;;27.40;69.40;;;27.99;54.42;95262.47;5095241;28;20263;-49
2023/07/11 05:29:38;;;;;;;0.30;0.30;;;27.40;69.50;;;27.97;54.27;95260.06;5095312;28;20281;-48
2023/07/11 05:32:06;;;;;;;0.20;0.20;;;27.40;69.60;;;27.99;54.16;95263.28;5095029;28;20321;-48
2023/07/11 05:34:33;;;;;;;0.20;0.20;;;27.40;69.60;;;27.98;54.47;95261.69;5095858;28;20522;-48
2023/07/11 05:37:03;;;;;;;0.30;0.30;;;27.40;69.60;;;27.98;54.54;95263.56;5095810;28;20253;-44
2023/07/11 05:39:30;;;;;;;0.30;0.30;;;27.40;69.60;;;27.98;54.31;95267.06;5095191;28;20240;-44
2023/07/11 05:41:58;;;;;;;0.30;0.30;;;27.40;69.60;;;27.98;54.58;95271.63;5095310;28;20231;-44
2023/07/11 05:44:25;;;;;;;0.30;0.30;;;27.40;69.70;;;27.97;54.42;95276.25;5095158;28;20199;-44
2023/07/11 05:46:52;;;;;;;0.25;0.25;;;27.40;69.70;;;27.98;54.60;95277.84;5095352;28;20213;-44
2023/07/11 05:49:19;;;;;;;0.30;0.30;;;27.40;69.70;;;27.99;54.37;95275.94;5094368;28;20195;-44
2023/07/11 05:51:47;;;;;;;0.30;0.30;;;27.40;69.70;;;27.99;54.50;95275.94;5095503;28;20656;-44
2023/07/11 05:54:14;;;;;;;0.30;0.30;;;27.40;70.70;;;28.00;54.73;95274.84;5095193;28;20198;-45
2023/07/11 05:56:41;;;;;;;0.30;0.30;;;27.40;69.80;;;28.00;55.11;95272.16;5094980;28;20305;-45
2023/07/11 05:59:08;;;;;;;0.20;0.20;;;27.40;69.80;;;27.99;54.80;95271.38;5095000;28;20197;-44
2023/07/11 06:01:36;;;;;;;0.30;0.30;;;27.40;69.80;;;28.00;55.03;95275.63;5095169;28;20292;-44
2023/07/11 06:04:16;;;;;;;0.30;0.30;;;27.40;69.70;;;28.00;55.26;95274.84;5093837;28;20207;-44
2023/07/11 06:06:43;;;;;;;0.30;0.30;;;27.50;70.00;;;28.00;54.53;95278.34;5094896;27;20508;-44
2023/07/11 06:09:17;;;;;;;0.30;0.30;;;27.40;69.70;;;28.01;54.50;95276.47;5094869;28;20542;-44
2023/07/11 06:11:47;;;;;;;0.30;0.30;;;27.40;69.80;;;28.02;54.91;95272.66;5095299;28;20709;-44
2023/07/11 06:14:15;;;;;;;0.20;0.20;;;27.40;70.60;;;28.02;55.04;95276.16;5093929;28;20194;-44
2023/07/11 06:16:44;;;;;;;0.30;0.30;;;27.50;69.80;;;28.03;54.48;95276.97;5095390;28;20266;-44
2023/07/11 06:19:16;;;;;;;0.22;0.22;;;27.40;69.70;;;28.02;54.39;95273.47;5095094;28;20555;-44
2023/07/11 06:21:44;;;;;;;0.30;0.30;;;27.40;69.70;;;28.03;54.95;95277.75;5094776;28;20196;-44
2023/07/11 06:24:12;;;;;;;0.20;0.20;;;27.50;69.80;;;28.04;54.92;95276.66;5094633;28;20228;-44
2023/07/11 06:26:39;;;;;;;0.20;0.20;;;27.50;69.70;;;28.05;54.56;95275.63;5094591;28;20253;-44
2023/07/11 06:29:06;;;;;;;0.20;0.20;;;27.40;69.70;;;28.06;54.82;95276.41;5094702;28;20509;-44
2023/07/11 06:31:33;;;;;;;0.30;0.30;;;27.50;69.60;;;28.06;54.46;95274.53;5094048;28;20664;-46
2023/07/11 06:34:03;;;;;;;0.30;0.30;;;27.50;69.60;;;28.06;54.94;95274.53;5093543;28;20599;-44
2023/07/11 06:36:30;;;;;;;0.30;0.30;;;27.50;69.70;;;28.07;54.84;95275.31;5094932;28;20249;-44
2023/07/11 06:38:57;;;;;;;0.30;0.30;;;27.50;69.70;;;28.08;54.30;95277.69;5094653;28;20248;-44
2023/07/11 06:41:24;;;;;;;0.30;0.30;;;27.50;69.60;;;28.09;54.24;95268.53;5094919;28;20195;-44
2023/07/11 06:43:53;;;;;;;0.28;0.28;;;27.50;69.60;;;28.10;54.80;95272.81;5094541;28;20688;-44
2023/07/11 06:46:20;;;;;;;0.20;0.20;;;27.50;69.60;;;28.11;54.62;95270.91;5094557;28;20259;-47
2023/07/11 06:48:47;;;;;;;0.30;0.30;;;27.50;69.40;;;28.11;54.25;95268.22;5094513;28;20222;-45
2023/07/11 06:51:14;;;;;;;0.30;0.30;;;27.50;69.30;;;28.11;54.16;95271.72;5094676;28;20216;-48
2023/07/11 06:53:42;;;;;;;0.30;0.30;;;27.50;69.30;;;28.12;54.23;95275.22;5094467;28;20193;-44
2023/07/11 06:56:09;;;;;;;0.30;0.30;;;27.50;69.30;;;28.13;54.22;95274.13;5110445;28;20237;-44
2023/07/11 06:58:36;;;;;;;0.30;0.30;;;27.50;69.10;;;28.14;53.95;95280.31;5094472;28;20240;-44
2023/07/11 07:01:06;;;;;;;0.30;0.30;;;27.50;69.00;;;28.14;53.74;95278.44;5097020;28;20517;-44
2023/07/11 07:03:42;;;;;;;0.20;0.20;;;27.50;69.10;;;28.14;54.42;95277.63;5098031;28;20236;-48
2023/07/11 07:06:12;;;;;;;0.20;0.20;;;27.50;69.10;;;28.14;54.09;95275.72;5098008;28;20278;-45
2023/07/11 07:08:40;;;;;;;0.30;0.30;;;27.50;69.00;;;28.16;54.45;95267.34;5097986;28;20180;-44
2023/07/11 07:11:08;;;;;;;0.30;0.30;;;27.50;69.00;;;28.16;54.26;95265.47;5097832;28;20668;-48
2023/07/11 07:13:36;;;;;;;0.20;0.20;;;27.60;69.10;;;28.17;54.01;95266.25;5097942;28;20273;-49
2023/07/11 07:16:12;;;;;;;0.28;0.28;;;27.50;68.90;;;28.14;54.15;95264.94;5097831;28;20509;-44
2023/07/11 07:18:41;;;;;;;0.30;0.30;;;27.50;68.90;;;28.18;54.35;95268.63;5098320;28;20191;-47
2023/07/11 07:21:09;;;;;;;0.30;0.30;;;27.60;68.90;;;28.19;53.65;95267.56;5097956;28;20212;-50
2023/07/11 07:23:38;;;;;;;0.40;0.40;;;27.60;69.00;;;28.18;53.73;95267.84;5097722;28;20187;-47
2023/07/11 07:26:05;;;;;;;0.22;0.22;;;27.50;68.90;;;28.19;53.73;95266.75;5096591;28;20243;-47
2023/07/11 07:28:34;;;;;;;0.35;0.35;;;27.60;69.00;;;28.20;53.87;95263.75;5098157;28;20183;-47
2023/07/11 07:31:05;;;;;;;0.30;0.30;;;27.60;69.00;;;28.21;53.64;95267.25;5097793;28;20294;-46
2023/07/11 07:33:34;;;;;;;0.30;0.30;;;27.60;68.90;;;28.21;54.01;95265.38;5097679;28;20189;-46
2023/07/11 07:36:05;;;;;;;0.20;0.20;;;27.60;68.90;;;28.23;54.05;95262.38;5097660;28;20200;-44
2023/07/11 07:38:33;;;;;;;0.20;0.20;;;27.60;68.90;;;28.23;54.14;95263.16;5097669;28;20214;-44
2023/07/11 07:41:04;;;;;;;0.30;0.30;;;27.60;69.00;;;28.24;54.03;95263.97;5097301;28;20192;-43
2023/07/11 07:43:34;;;;;;;0.22;0.22;;;27.60;68.90;;;28.25;54.03;95262.88;5097307;28;20178;-44
2023/07/11 07:46:03;;;;;;;0.30;0.30;;;27.60;69.00;;;28.26;53.76;95254.47;5097218;28;20263;-44
2023/07/11 07:48:31;;;;;;;0.20;0.20;;;27.60;69.00;;;28.27;53.35;95252.56;5096306;28;20191;-44
2023/07/11 07:51:08;;;;;;;0.30;0.30;;;27.60;69.00;;;28.27;53.71;95253.41;5097380;28;20249;-44
2023/07/11 07:53:36;;;;;;;0.20;0.20;;;27.60;68.90;;;28.30;53.79;95259.31;5097419;28;20618;-44
2023/07/11 07:56:07;;;;;;;0.30;0.30;;;27.70;69.00;;;28.31;53.82;95255.47;5096998;28;20221;-44
2023/07/11 07:58:35;;;;;;;0.22;0.22;;;27.70;69.00;;;28.32;53.71;95249.00;5113073;28;20215;-44
2023/07/11 08:01:12;;;;;;;0.30;0.30;;;27.70;69.90;;;28.32;53.61;95249.00;5096955;28;20176;-44
2023/07/11 08:03:40;;;;;;;0.20;0.20;;;27.70;69.00;;;28.34;53.48;95257.59;5079116;28;20256;-44
2023/07/11 08:06:09;;;;;;;0.30;0.30;;;27.70;69.00;;;28.34;53.22;95253.00;5096210;28;20697;-44
2023/07/11 08:08:39;;;;;;;0.30;0.30;;;27.70;69.90;;;28.34;53.51;95249.50;5097081;28;20285;-48
2023/07/11 08:11:08;;;;;;;0.20;0.20;;;27.70;69.00;;;28.36;53.81;95258.13;5095716;28;20548;-44
2023/07/11 08:13:36;;;;;;;0.20;0.20;;;27.70;69.00;;;28.37;53.71;95257.81;5096283;28;20228;-47
2023/07/11 08:16:23;;;;;;;0.28;0.28;;;27.70;69.00;;;28.37;53.52;95255.09;5096940;28;20235;-45
2023/07/11 08:19:04;;;;;;;0.20;0.20;;;27.70;69.00;;;28.37;53.18;95249.72;5111305;28;20244;-44
2023/07/11 08:21:36;;;;;;;0.30;0.30;;;27.70;69.00;;;28.38;52.73;95248.63;5096242;28;20192;-45
2023/07/11 08:24:06;;;;;;;0.20;0.20;;;27.70;69.00;;;28.40;53.29;95249.09;5112311;28;20186;-45
2023/07/11 08:26:34;;;;;;;0.30;0.30;;;27.70;69.00;;;28.41;52.99;95250.72;5095326;28;20275;-45
2023/07/11 08:29:01;;;;;;;0.20;0.20;;;27.80;69.00;;;28.43;52.76;95247.72;5096365;28;20231;-48
2023/07/11 08:31:46;;;;;;;0.20;0.20;;;27.80;69.80;;;28.44;53.12;95246.63;5096572;28;20634;-45
2023/07/11 08:34:13;;;;;;;0.30;0.30;;;27.80;68.80;;;28.44;52.61;95244.72;5096187;28;20190;-46
2023/07/11 08:36:41;;;;;;;0.30;0.30;;;27.80;68.80;;;28.46;52.52;95244.44;5096255;28;20186;-46
2023/07/11 08:39:09;;;;;;;0.20;0.20;;;27.80;69.60;;;28.47;52.71;95248.72;5096443;28;20204;-44
2023/07/11 08:41:50;;;;;;;0.30;0.30;;;27.80;68.40;;;28.47;52.44;95245.25;5096156;28;20194;-47
2023/07/11 08:44:38;;;;;;;0.30;0.30;;;27.80;68.10;;;28.47;52.79;95240.63;5096184;28;20183;-44
2023/07/11 08:47:37;;;;;;;0.25;0.25;;;27.80;68.10;;;28.48;52.75;95230.63;5096355;28;20184;-46
2023/07/11 08:50:18;;;;;;;0.30;0.30;;;27.80;68.00;;;28.48;52.03;95242.25;5096007;28;20288;-47
2023/07/11 08:52:54;;;;;;;0.22;0.22;;;27.80;67.80;;;28.50;51.93;95234.63;5095320;28;20217;-45
2023/07/11 08:55:29;;;;;;;0.25;0.25;;;27.80;68.00;;;28.50;52.39;95231.94;5095081;28;20183;-44
2023/07/11 08:58:16;;;;;;;0.20;0.20;;;27.80;68.00;;;28.52;52.52;95226.25;5095885;28;20271;-46
2023/07/11 09:00:48;;;;;;;0.22;0.22;;;27.80;67.70;;;28.53;51.96;95231.34;5096096;28;20196;-44
2023/07/11 09:03:26;;;;;;;0.22;0.22;;;27.80;68.00;;;28.56;52.08;95228.06;5095877;28;20188;-44
2023/07/11 09:06:09;;;;;;;0.20;0.20;;;27.80;67.90;;;28.55;52.29;95228.34;5096050;28;20235;-47
2023/07/11 09:08:44;;;;;;;0.20;0.20;;;27.90;67.60;;;28.56;52.24;95224.53;5095409;28;20187;-48
2023/07/11 09:11:22;;;;;;;0.30;0.30;;;27.90;67.70;;;28.58;51.90;95222.34;5095101;28;20184;-46
2023/07/11 09:14:24;;;;;;;0.30;0.30;;;27.90;67.60;;;28.58;52.18;95217.75;5095358;28;20207;-43
2023/07/11 09:17:10;;;;;;;0.30;0.30;;;27.90;67.80;;;28.59;52.23;95215.88;5095513;28;20239;-44
2023/07/11 09:20:07;;;;;;;0.30;0.30;;;27.90;67.80;;;28.61;51.92;95210.94;5094662;28;20177;-45
2023/07/11 09:22:58;;;;;;;0.22;0.22;;;27.90;67.80;;;28.62;51.61;95209.06;5095761;28;20186;-44
2023/07/11 09:25:40;;;;;;;0.30;0.30;;;27.90;67.50;;;28.62;52.07;95209.06;5094689;28;20185;-45
2023/07/11 09:28:26;;;;;;;0.30;0.30;;;28.00;67.60;;;28.64;52.02;95209.53;5094415;28;20684;-48
2023/07/11 09:31:06;;;;;;;0.20;0.20;;;27.90;67.50;;;28.64;52.04;95204.97;5095395;28;20508;-50
2023/07/11 09:33:39;;;;;;;0.30;0.30;;;28.00;67.80;;;28.67;51.41;95203.56;5096123;28;20627;-50
2023/07/11 09:36:30;;;;;;;0.30;0.30;;;28.00;67.30;;;28.67;51.81;95207.03;5095319;28;20189;-44
2023/07/11 09:39:39;;;;;;;0.30;0.30;;;28.00;67.50;;;28.69;50.80;95201.41;5111525;28;20182;-44
2023/07/11 09:42:24;;;;;;;0.22;0.22;;;28.00;67.30;;;28.68;51.24;95200.59;5094098;28;20248;-44
2023/07/11 09:45:15;;;;;;;0.30;0.30;;;28.00;67.30;;;28.70;51.51;95190.28;5095153;28;20181;-44
2023/07/11 09:47:52;;;;;;;0.28;0.28;;;28.00;67.50;;;28.72;51.08;95190.00;5094915;28;20230;-44
2023/07/11 09:50:45;;;;;;;0.20;0.20;;;28.00;67.40;;;28.74;51.47;95193.19;5095354;28;20199;-45
2023/07/11 09:53:32;;;;;;;0.30;0.30;;;28.00;67.20;;;28.74;51.75;95196.69;5093921;28;20213;-46
2023/07/11 09:56:04;;;;;;;0.20;0.20;;;28.00;67.20;;;28.77;51.53;95195.28;5094486;28;20267;-44
2023/07/11 09:58:34;;;;;;;0.30;0.30;;;28.00;67.10;;;28.79;51.46;95184.97;5094923;28;20214;-44
2023/07/11 10:01:05;;;;;;;0.20;0.20;;;28.10;67.10;;;28.82;50.87;95191.69;5094134;28;20245;-44
2023/07/11 10:03:35;;;;;;;0.22;0.22;;;28.10;67.10;;;28.83;51.32;95191.41;5094861;28;20184;-44
2023/07/11 10:06:04;;;;;;;0.30;0.30;;;28.10;67.10;;;28.85;50.68;95189.19;5094937;28;20196;-44
2023/07/11 10:08:41;;;;;;;0.30;0.30;;;28.10;67.10;;;28.88;50.44;95185.06;5095135;28;20186;-44
2023/07/11 10:11:13;;;;;;;0.30;0.30;;;28.10;67.70;;;28.87;50.96;95175.41;5094077;28;20207;-44
2023/07/11 10:13:45;;;;;;;0.30;0.30;;;28.20;66.90;;;28.92;50.66;95177.97;5094697;28;20590;-44
2023/07/11 10:16:20;;;;;;;0.30;0.30;;;28.20;67.00;;;28.95;50.65;95177.34;5095384;28;20196;-44
2023/07/11 10:18:47;;;;;;;0.30;0.30;;;28.20;67.00;;;28.96;50.67;95176.25;5095423;28;20216;-47
2023/07/11 10:21:22;;;;;;;0.20;0.20;;;28.20;66.90;;;28.98;50.90;95173.25;5094919;28;20190;-43
2023/07/11 10:24:02;;;;;;;0.20;0.20;;;28.20;66.80;;;28.98;50.72;95163.25;5095129;28;20692;-44
2023/07/11 10:26:30;;;;;;;0.20;0.20;;;28.20;66.80;;;29.01;50.86;95173.44;5094592;28;20634;-45
2023/07/11 10:29:16;;;;;;;0.30;0.30;;;28.30;66.60;;;29.02;50.80;95172.34;5094783;28;20596;-45
2023/07/11 10:32:05;;;;;;;0.30;0.30;;;28.30;67.30;;;29.04;50.57;95169.34;5093862;28;20181;-44
2023/07/11 10:34:50;;;;;;;0.30;0.30;;;28.30;66.40;;;29.05;49.83;95163.66;5094774;28;20265;-46